sensor_id;sensor_type;location;lat;lon;timestamp;pressure;altitude;pressure_sealevel;temperature;humidity
46223;BME280;31943;51.410;7.564;2022-08-01T00:01:14;100264.94;;;20.50;74.47
46223;BME280;31943;51.410;7.564;2022-08-01T00:03:40;100263.97;;;20.52;74.35
46223;BME280;31943;51.410;7.564;2022-08-01T00:06:06;100261.19;;;20.57;73.94
46223;BME280;31943;51.410;7.564;2022-08-01T00:08:34;100252.50;;;20.52;73.83
46223;BME280;31943;51.410;7.564;2022-08-01T00:11:00;100256.94;;;20.51;74.15
46223;BME280;31943;51.410;7.564;2022-08-01T00:13:25;100255.13;;;20.52;74.11
46223;BME280;31943;51.410;7.564;2022-08-01T00:15:51;100253.41;;;20.51;73.82
46223;BME280;31943;51.410;7.564;2022-08-01T00:18:17;100256.16;;;20.48;73.77
46223;BME280;31943;51.410;7.564;2022-08-01T00:20:42;100258.03;;;20.44;74.18
46223;BME280;31943;51.410;7.564;2022-08-01T00:23:08;100257.34;;;20.38;74.53
46223;BME280;31943;51.410;7.564;2022-08-01T00:25:35;100252.00;;;20.39;74.68
46223;BME280;31943;51.410;7.564;2022-08-01T00:28:01;100257.34;;;20.38;74.21
46223;BME280;31943;51.410;7.564;2022-08-01T00:30:26;100253.88;;;20.35;74.40
46223;BME280;31943;51.410;7.564;2022-08-01T00:32:52;100254.69;;;20.38;74.44
46223;BME280;31943;51.410;7.564;2022-08-01T00:35:18;100253.72;;;20.40;74.67
46223;BME280;31943;51.410;7.564;2022-08-01T00:37:43;100256.47;;;20.39;74.27
46223;BME280;31943;51.410;7.564;2022-08-01T00:40:09;100253.00;;;20.37;74.39
46223;BME280;31943;51.410;7.564;2022-08-01T00:42:36;100252.06;;;20.38;74.56
46223;BME280;31943;51.410;7.564;2022-08-01T00:45:02;100249.31;;;20.41;74.79
46223;BME280;31943;51.410;7.564;2022-08-01T00:47:28;100248.44;;;20.40;74.88
46223;BME280;31943;51.410;7.564;2022-08-01T00:49:53;100252.72;;;20.44;74.86
46223;BME280;31943;51.410;7.564;2022-08-01T00:52:19;100242.81;;;20.51;74.41
46223;BME280;31943;51.410;7.564;2022-08-01T00:54:45;100258.72;;;20.51;74.33
46223;BME280;31943;51.410;7.564;2022-08-01T00:57:11;100255.25;;;20.49;74.56
46223;BME280;31943;51.410;7.564;2022-08-01T00:59:39;100258.53;;;20.57;74.24
46223;BME280;31943;51.410;7.564;2022-08-01T01:02:06;100253.09;;;20.62;73.95
46223;BME280;31943;51.410;7.564;2022-08-01T01:04:31;100247.72;;;20.65;73.84
46223;BME280;31943;51.410;7.564;2022-08-01T01:07:01;100253.78;;;20.68;73.68
46223;BME280;31943;51.410;7.564;2022-08-01T01:09:36;100250.22;;;20.69;73.27
46223;BME280;31943;51.410;7.564;2022-08-01T01:12:13;100261.72;;;20.70;73.56
46223;BME280;31943;51.410;7.564;2022-08-01T01:14:45;100253.78;;;20.68;73.90
46223;BME280;31943;51.410;7.564;2022-08-01T01:17:19;100247.69;;;20.66;73.41
46223;BME280;31943;51.410;7.564;2022-08-01T01:19:48;100258.16;;;20.69;73.47
46223;BME280;31943;51.410;7.564;2022-08-01T01:22:25;100251.19;;;20.67;73.61
46223;BME280;31943;51.410;7.564;2022-08-01T01:25:04;100259.38;;;20.59;74.23
46223;BME280;31943;51.410;7.564;2022-08-01T01:27:41;100249.75;;;20.55;74.25
46223;BME280;31943;51.410;7.564;2022-08-01T01:30:12;100256.06;;;20.51;73.98
46223;BME280;31943;51.410;7.564;2022-08-01T01:32:43;100250.97;;;20.45;74.24
46223;BME280;31943;51.410;7.564;2022-08-01T01:35:15;100257.97;;;20.46;74.55
46223;BME280;31943;51.410;7.564;2022-08-01T01:37:44;100257.03;;;20.48;74.17
46223;BME280;31943;51.410;7.564;2022-08-01T01:40:13;100259.63;;;20.50;74.51
46223;BME280;31943;51.410;7.564;2022-08-01T01:42:39;100252.59;;;20.49;74.43
46223;BME280;31943;51.410;7.564;2022-08-01T01:45:07;100257.78;;;20.52;73.92
46223;BME280;31943;51.410;7.564;2022-08-01T01:47:36;100255.34;;;20.46;74.29
46223;BME280;31943;51.410;7.564;2022-08-01T01:50:04;100255.53;;;20.40;74.43
46223;BME280;31943;51.410;7.564;2022-08-01T01:52:31;100260.03;;;20.36;74.75
46223;BME280;31943;51.410;7.564;2022-08-01T01:54:58;100260.00;;;20.38;74.82
46223;BME280;31943;51.410;7.564;2022-08-01T01:57:25;100260.81;;;20.40;74.92
46223;BME280;31943;51.410;7.564;2022-08-01T01:59:53;100259.84;;;20.42;74.53
46223;BME280;31943;51.410;7.564;2022-08-01T02:02:20;100255.44;;;20.43;74.52
46223;BME280;31943;51.410;7.564;2022-08-01T02:04:50;100258.03;;;20.44;74.22
46223;BME280;31943;51.410;7.564;2022-08-01T02:07:19;100256.97;;;20.50;73.65
46223;BME280;31943;51.410;7.564;2022-08-01T02:09:46;100254.31;;;20.50;73.43
46223;BME280;31943;51.410;7.564;2022-08-01T02:12:13;100258.84;;;20.46;73.57
46223;BME280;31943;51.410;7.564;2022-08-01T02:14:42;100260.78;;;20.41;73.99
46223;BME280;31943;51.410;7.564;2022-08-01T02:17:10;100263.41;;;20.43;74.29
46223;BME280;31943;51.410;7.564;2022-08-01T02:19:37;100262.66;;;20.38;73.90
46223;BME280;31943;51.410;7.564;2022-08-01T02:22:05;100251.31;;;20.32;74.75
46223;BME280;31943;51.410;7.564;2022-08-01T02:24:36;100259.41;;;20.28;74.78
46223;BME280;31943;51.410;7.564;2022-08-01T02:27:06;100254.97;;;20.28;74.31
46223;BME280;31943;51.410;7.564;2022-08-01T02:29:42;100251.31;;;20.32;74.52
46223;BME280;31943;51.410;7.564;2022-08-01T02:32:13;100253.00;;;20.37;74.45
46223;BME280;31943;51.410;7.564;2022-08-01T02:34:40;100250.25;;;20.38;73.82
46223;BME280;31943;51.410;7.564;2022-08-01T02:37:08;100255.63;;;20.37;74.12
46223;BME280;31943;51.410;7.564;2022-08-01T02:39:35;100255.69;;;20.35;74.46
46223;BME280;31943;51.410;7.564;2022-08-01T02:42:05;100258.38;;;20.33;74.46
46223;BME280;31943;51.410;7.564;2022-08-01T02:44:37;100262.69;;;20.36;74.27
46223;BME280;31943;51.410;7.564;2022-08-01T02:47:03;100255.69;;;20.35;74.57
46223;BME280;31943;51.410;7.564;2022-08-01T02:49:31;100255.53;;;20.40;73.80
46223;BME280;31943;51.410;7.564;2022-08-01T02:51:59;100254.47;;;20.45;73.11
46223;BME280;31943;51.410;7.564;2022-08-01T02:54:29;100265.03;;;20.47;73.27
46223;BME280;31943;51.410;7.564;2022-08-01T02:56:56;100269.59;;;20.42;74.10
46223;BME280;31943;51.410;7.564;2022-08-01T02:59:24;100255.56;;;20.38;73.77
46223;BME280;31943;51.410;7.564;2022-08-01T03:01:52;100256.47;;;20.39;74.06
46223;BME280;31943;51.410;7.564;2022-08-01T03:04:20;100266.16;;;20.38;73.51
46223;BME280;31943;51.410;7.564;2022-08-01T03:06:47;100265.25;;;20.39;73.54
46223;BME280;31943;51.410;7.564;2022-08-01T03:09:14;100266.09;;;20.41;73.59
46223;BME280;31943;51.410;7.564;2022-08-01T03:11:43;100257.13;;;20.45;72.93
46223;BME280;31943;51.410;7.564;2022-08-01T03:14:10;100265.66;;;20.55;72.49
46223;BME280;31943;51.410;7.564;2022-08-01T03:16:38;100262.06;;;20.56;73.00
46223;BME280;31943;51.410;7.564;2022-08-01T03:19:06;100254.97;;;20.58;72.57
46223;BME280;31943;51.410;7.564;2022-08-01T03:21:34;100247.88;;;20.59;72.55
46223;BME280;31943;51.410;7.564;2022-08-01T03:24:01;100246.13;;;20.59;72.54
46223;BME280;31943;51.410;7.564;2022-08-01T03:26:28;100253.19;;;20.60;72.46
46223;BME280;31943;51.410;7.564;2022-08-01T03:28:58;100255.81;;;20.60;72.26
46223;BME280;31943;51.410;7.564;2022-08-01T03:31:25;100260.25;;;20.60;72.64
46223;BME280;31943;51.410;7.564;2022-08-01T03:33:51;100262.97;;;20.57;72.50
46223;BME280;31943;51.410;7.564;2022-08-01T03:36:21;100259.50;;;20.54;72.46
46223;BME280;31943;51.410;7.564;2022-08-01T03:38:50;100261.19;;;20.57;72.73
46223;BME280;31943;51.410;7.564;2022-08-01T03:41:19;100262.06;;;20.56;72.49
46223;BME280;31943;51.410;7.564;2022-08-01T03:43:48;100259.59;;;20.51;72.87
46223;BME280;31943;51.410;7.564;2022-08-01T03:46:22;100263.97;;;20.52;72.29
46223;BME280;31943;51.410;7.564;2022-08-01T03:48:54;100266.56;;;20.54;72.79
46223;BME280;31943;51.410;7.564;2022-08-01T03:51:21;100265.63;;;20.57;73.07
46223;BME280;31943;51.410;7.564;2022-08-01T03:53:49;100270.16;;;20.53;72.65
46223;BME280;31943;51.410;7.564;2022-08-01T03:56:18;100272.06;;;20.48;73.10
46223;BME280;31943;51.410;7.564;2022-08-01T03:58:44;100270.59;;;20.38;73.10
46223;BME280;31943;51.410;7.564;2022-08-01T04:01:10;100269.94;;;20.31;73.44
46223;BME280;31943;51.410;7.564;2022-08-01T04:03:38;100279.78;;;20.26;73.73
46223;BME280;31943;51.410;7.564;2022-08-01T04:06:04;100283.47;;;20.20;74.37
46223;BME280;31943;51.410;7.564;2022-08-01T04:08:34;100288.72;;;20.23;74.30
46223;BME280;31943;51.410;7.564;2022-08-01T04:11:00;100284.22;;;20.25;73.99
46223;BME280;31943;51.410;7.564;2022-08-01T04:13:26;100280.63;;;20.28;74.45
46223;BME280;31943;51.410;7.564;2022-08-01T04:15:51;100280.56;;;20.29;74.52
46223;BME280;31943;51.410;7.564;2022-08-01T04:18:17;100281.25;;;20.36;74.49
46223;BME280;31943;51.410;7.564;2022-08-01T04:20:46;100282.19;;;20.35;74.44
46223;BME280;31943;51.410;7.564;2022-08-01T04:23:13;100286.69;;;20.31;74.20
46223;BME280;31943;51.410;7.564;2022-08-01T04:25:41;100285.69;;;20.35;74.13
46223;BME280;31943;51.410;7.564;2022-08-01T04:28:10;100285.66;;;20.37;73.46
46223;BME280;31943;51.410;7.564;2022-08-01T04:30:37;100289.94;;;20.41;73.56
46223;BME280;31943;51.410;7.564;2022-08-01T04:33:06;100287.19;;;20.44;73.09
46223;BME280;31943;51.410;7.564;2022-08-01T04:35:33;100295.84;;;20.51;72.80
46223;BME280;31943;51.410;7.564;2022-08-01T04:38:03;100295.69;;;20.55;72.83
46223;BME280;31943;51.410;7.564;2022-08-01T04:40:30;100291.19;;;20.59;72.46
46223;BME280;31943;51.410;7.564;2022-08-01T04:42:57;100295.47;;;20.63;72.48
46223;BME280;31943;51.410;7.564;2022-08-01T04:45:23;100296.34;;;20.64;72.34
46223;BME280;31943;51.410;7.564;2022-08-01T04:47:49;100307.03;;;20.62;72.68
46223;BME280;31943;51.410;7.564;2022-08-01T04:50:15;100310.66;;;20.58;72.90
46223;BME280;31943;51.410;7.564;2022-08-01T04:52:41;100307.09;;;20.58;72.68
46223;BME280;31943;51.410;7.564;2022-08-01T04:55:09;100314.03;;;20.63;72.27
46223;BME280;31943;51.410;7.564;2022-08-01T04:57:36;100315.63;;;20.69;72.35
46223;BME280;31943;51.410;7.564;2022-08-01T05:00:03;100309.38;;;20.71;71.87
46223;BME280;31943;51.410;7.564;2022-08-01T05:02:29;100317.31;;;20.71;72.36
46223;BME280;31943;51.410;7.564;2022-08-01T05:04:55;100308.47;;;20.72;72.25
46223;BME280;31943;51.410;7.564;2022-08-01T05:07:21;100308.31;;;20.77;71.95
46223;BME280;31943;51.410;7.564;2022-08-01T05:09:47;100310.84;;;20.82;71.52
46223;BME280;31943;51.410;7.564;2022-08-01T05:12:14;100310.84;;;20.82;72.26
46223;BME280;31943;51.410;7.564;2022-08-01T05:14:40;100316.16;;;20.82;72.17
46223;BME280;31943;51.410;7.564;2022-08-01T05:17:06;100313.63;;;20.77;72.17
46223;BME280;31943;51.410;7.564;2022-08-01T05:19:33;100309.28;;;20.74;72.07
46223;BME280;31943;51.410;7.564;2022-08-01T05:21:59;100316.31;;;20.76;72.23
46223;BME280;31943;51.410;7.564;2022-08-01T05:24:24;100322.38;;;20.79;72.10
46223;BME280;31943;51.410;7.564;2022-08-01T05:26:50;100321.44;;;20.82;71.74
46223;BME280;31943;51.410;7.564;2022-08-01T05:29:17;100319.63;;;20.84;71.54
46223;BME280;31943;51.410;7.564;2022-08-01T05:31:43;100326.69;;;20.83;71.41
46223;BME280;31943;51.410;7.564;2022-08-01T05:34:08;100323.16;;;20.83;71.07
46223;BME280;31943;51.410;7.564;2022-08-01T05:36:34;100320.63;;;20.80;71.41
46223;BME280;31943;51.410;7.564;2022-08-01T05:39:00;100326.69;;;20.83;71.78
46223;BME280;31943;51.410;7.564;2022-08-01T05:41:26;100335.75;;;20.76;71.32
46223;BME280;31943;51.410;7.564;2022-08-01T05:43:51;100336.81;;;20.70;71.63
46223;BME280;31943;51.410;7.564;2022-08-01T05:46:19;100339.50;;;20.69;71.32
46223;BME280;31943;51.410;7.564;2022-08-01T05:48:44;100338.59;;;20.70;71.58
46223;BME280;31943;51.410;7.564;2022-08-01T05:51:10;100340.56;;;20.63;72.16
46223;BME280;31943;51.410;7.564;2022-08-01T05:53:36;100351.09;;;20.66;72.21
46223;BME280;31943;51.410;7.564;2022-08-01T05:56:01;100343.75;;;20.74;72.00
46223;BME280;31943;51.410;7.564;2022-08-01T05:58:27;100348.13;;;20.76;71.88
46223;BME280;31943;51.410;7.564;2022-08-01T06:00:53;100350.78;;;20.76;72.06
46223;BME280;31943;51.410;7.564;2022-08-01T06:03:21;100346.28;;;20.78;72.10
46223;BME280;31943;51.410;7.564;2022-08-01T06:05:46;100346.13;;;20.84;71.85
46223;BME280;31943;51.410;7.564;2022-08-01T06:08:12;100351.22;;;20.91;71.50
46223;BME280;31943;51.410;7.564;2022-08-01T06:10:38;100351.94;;;20.95;71.89
46223;BME280;31943;51.410;7.564;2022-08-01T06:13:03;100356.31;;;20.98;71.83
46223;BME280;31943;51.410;7.564;2022-08-01T06:15:29;100353.50;;;21.02;72.18
46223;BME280;31943;51.410;7.564;2022-08-01T06:17:55;100355.25;;;21.03;71.65
46223;BME280;31943;51.410;7.564;2022-08-01T06:20:23;100364.13;;;21.02;71.65
46223;BME280;31943;51.410;7.564;2022-08-01T06:22:48;100359.88;;;20.97;71.97
46223;BME280;31943;51.410;7.564;2022-08-01T06:25:14;100359.28;;;20.87;71.34
46223;BME280;31943;51.410;7.564;2022-08-01T06:27:40;100362.09;;;20.82;71.48
46223;BME280;31943;51.410;7.564;2022-08-01T06:30:06;100360.16;;;20.87;70.95
46223;BME280;31943;51.410;7.564;2022-08-01T06:32:33;100356.59;;;20.88;70.87
46223;BME280;31943;51.410;7.564;2022-08-01T06:34:59;100359.56;;;20.78;70.74
46223;BME280;31943;51.410;7.564;2022-08-01T06:37:30;100356.38;;;20.66;71.42
46223;BME280;31943;51.410;7.564;2022-08-01T06:39:55;100354.03;;;20.54;71.54
46223;BME280;31943;51.410;7.564;2022-08-01T06:42:21;100356.81;;;20.51;71.15
46223;BME280;31943;51.410;7.564;2022-08-01T06:44:47;100370.91;;;20.51;71.33
46223;BME280;31943;51.410;7.564;2022-08-01T06:47:12;100360.47;;;20.47;71.25
46223;BME280;31943;51.410;7.564;2022-08-01T06:49:38;100360.53;;;20.44;70.84
46223;BME280;31943;51.410;7.564;2022-08-01T06:52:04;100360.69;;;20.39;71.46
46223;BME280;31943;51.410;7.564;2022-08-01T06:54:31;100368.25;;;20.51;71.81
46223;BME280;31943;51.410;7.564;2022-08-01T06:56:57;100359.63;;;20.76;70.65
46223;BME280;31943;51.410;7.564;2022-08-01T06:59:23;100363.09;;;20.78;71.04
46223;BME280;31943;51.410;7.564;2022-08-01T07:01:48;100362.63;;;20.93;71.10
46223;BME280;31943;51.410;7.564;2022-08-01T07:04:14;100358.50;;;21.13;69.72
46223;BME280;31943;51.410;7.564;2022-08-01T07:06:40;100357.91;;;21.03;69.45
46223;BME280;31943;51.410;7.564;2022-08-01T07:09:05;100352.06;;;20.92;69.80
46223;BME280;31943;51.410;7.564;2022-08-01T07:11:33;100356.44;;;20.93;70.57
46223;BME280;31943;51.410;7.564;2022-08-01T07:13:58;100355.97;;;21.08;70.59
46223;BME280;31943;51.410;7.564;2022-08-01T07:16:24;100349.19;;;21.26;70.33
46223;BME280;31943;51.410;7.564;2022-08-01T07:18:50;100353.09;;;21.43;69.34
46223;BME280;31943;51.410;7.564;2022-08-01T07:21:16;100347.41;;;21.55;68.90
46223;BME280;31943;51.410;7.564;2022-08-01T07:23:42;100350.88;;;21.57;68.93
46223;BME280;31943;51.410;7.564;2022-08-01T07:26:07;100357.59;;;21.67;69.30
46223;BME280;31943;51.410;7.564;2022-08-01T07:28:35;100355.66;;;21.72;68.21
46223;BME280;31943;51.410;7.564;2022-08-01T07:31:00;100352.63;;;21.83;68.20
46223;BME280;31943;51.410;7.564;2022-08-01T07:33:26;100355.78;;;21.95;67.11
46223;BME280;31943;51.410;7.564;2022-08-01T07:35:51;100354.19;;;22.14;67.43
46223;BME280;31943;51.410;7.564;2022-08-01T07:38:21;100352.56;;;22.10;66.70
46223;BME280;31943;51.410;7.564;2022-08-01T07:40:46;100355.47;;;22.04;66.20
46223;BME280;31943;51.410;7.564;2022-08-01T07:43:12;100354.03;;;22.19;66.28
46223;BME280;31943;51.410;7.564;2022-08-01T07:45:40;100354.78;;;22.47;65.33
46223;BME280;31943;51.410;7.564;2022-08-01T07:48:06;100361.22;;;22.40;65.04
46223;BME280;31943;51.410;7.564;2022-08-01T07:50:33;100368.00;;;22.25;64.83
46223;BME280;31943;51.410;7.564;2022-08-01T07:52:59;100356.25;;;22.06;65.34
46223;BME280;31943;51.410;7.564;2022-08-01T07:55:25;100359.09;;;22.01;65.88
46223;BME280;31943;51.410;7.564;2022-08-01T07:57:50;100360.78;;;22.04;65.92
46223;BME280;31943;51.410;7.564;2022-08-01T08:00:16;100366.44;;;22.18;65.31
46223;BME280;31943;51.410;7.564;2022-08-01T08:02:44;100365.94;;;22.57;63.52
46223;BME280;31943;51.410;7.564;2022-08-01T08:05:10;100362.69;;;22.73;61.71
46223;BME280;31943;51.410;7.564;2022-08-01T08:07:36;100372.28;;;22.53;62.75
46223;BME280;31943;51.410;7.564;2022-08-01T08:10:02;100371.19;;;22.59;62.17
46223;BME280;31943;51.410;7.564;2022-08-01T08:12:28;100362.56;;;22.76;61.78
46223;BME280;31943;51.410;7.564;2022-08-01T08:14:54;100368.94;;;22.71;61.81
46223;BME280;31943;51.410;7.564;2022-08-01T08:17:19;100379.69;;;22.68;62.62
46223;BME280;31943;51.410;7.564;2022-08-01T08:19:47;100371.06;;;22.85;62.42
46223;BME280;31943;51.410;7.564;2022-08-01T08:22:13;100370.88;;;22.90;60.83
46223;BME280;31943;51.410;7.564;2022-08-01T08:24:38;100371.19;;;22.82;61.42
46223;BME280;31943;51.410;7.564;2022-08-01T08:27:04;100374.13;;;22.75;61.78
46223;BME280;31943;51.410;7.564;2022-08-01T08:29:31;100374.75;;;22.81;62.49
46223;BME280;31943;51.410;7.564;2022-08-01T08:31:57;100373.34;;;22.95;62.80
46223;BME280;31943;51.410;7.564;2022-08-01T08:34:23;100373.28;;;23.20;61.65
46223;BME280;31943;51.410;7.564;2022-08-01T08:36:51;100366.41;;;23.36;60.51
46223;BME280;31943;51.410;7.564;2022-08-01T08:39:17;100371.88;;;23.33;60.56
46223;BME280;31943;51.410;7.564;2022-08-01T08:41:43;100379.16;;;23.28;60.40
46223;BME280;31943;51.410;7.564;2022-08-01T08:44:09;100376.69;;;23.45;59.33
46223;BME280;31943;51.410;7.564;2022-08-01T08:46:40;100386.44;;;23.67;59.09
46223;BME280;31943;51.410;7.564;2022-08-01T08:49:06;100388.56;;;24.01;58.25
46223;BME280;31943;51.410;7.564;2022-08-01T08:51:34;100390.69;;;23.93;57.98
46223;BME280;31943;51.410;7.564;2022-08-01T08:54:03;100392.06;;;23.81;58.03
46223;BME280;31943;51.410;7.564;2022-08-01T08:56:30;100391.66;;;23.70;58.45
46223;BME280;31943;51.410;7.564;2022-08-01T08:58:56;100383.22;;;23.59;59.45
46223;BME280;31943;51.410;7.564;2022-08-01T09:01:22;100386.22;;;23.51;58.33
46223;BME280;31943;51.410;7.564;2022-08-01T09:03:48;100394.16;;;23.73;57.17
46223;BME280;31943;51.410;7.564;2022-08-01T09:06:14;100392.44;;;23.72;57.10
46223;BME280;31943;51.410;7.564;2022-08-01T09:08:40;100385.00;;;24.01;56.97
46223;BME280;31943;51.410;7.564;2022-08-01T09:11:07;100400.06;;;24.43;55.63
46223;BME280;31943;51.410;7.564;2022-08-01T09:13:33;100392.06;;;24.43;54.06
46223;BME280;31943;51.410;7.564;2022-08-01T09:15:59;100400.50;;;24.13;56.05
46223;BME280;31943;51.410;7.564;2022-08-01T09:18:33;100395.69;;;24.21;56.48
46223;BME280;31943;51.410;7.564;2022-08-01T09:21:10;100398.75;;;24.12;56.38
46223;BME280;31943;51.410;7.564;2022-08-01T09:23:37;100403.34;;;23.88;57.04
46223;BME280;31943;51.410;7.564;2022-08-01T09:26:03;100402.03;;;23.78;57.22
46223;BME280;31943;51.410;7.564;2022-08-01T09:28:30;100402.31;;;23.70;57.09
46223;BME280;31943;51.410;7.564;2022-08-01T09:30:56;100411.88;;;23.96;56.31
46223;BME280;31943;51.410;7.564;2022-08-01T09:33:22;100410.97;;;23.97;56.36
46223;BME280;31943;51.410;7.564;2022-08-01T09:35:54;100413.53;;;23.78;56.93
46223;BME280;31943;51.410;7.564;2022-08-01T09:38:21;100401.81;;;23.60;57.30
46223;BME280;31943;51.410;7.564;2022-08-01T09:40:50;100407.41;;;23.54;58.05
46223;BME280;31943;51.410;7.564;2022-08-01T09:43:17;100416.59;;;23.67;57.04
46223;BME280;31943;51.410;7.564;2022-08-01T09:45:45;100408.69;;;24.08;56.17
46223;BME280;31943;51.410;7.564;2022-08-01T09:48:11;100417.25;;;24.36;55.03
46223;BME280;31943;51.410;7.564;2022-08-01T09:50:40;100413.41;;;24.43;54.74
46223;BME280;31943;51.410;7.564;2022-08-01T09:53:06;100415.00;;;24.26;54.17
46223;BME280;31943;51.410;7.564;2022-08-01T09:55:31;100413.38;;;24.03;54.62
46223;BME280;31943;51.410;7.564;2022-08-01T09:57:57;100413.31;;;23.83;54.98
46223;BME280;31943;51.410;7.564;2022-08-01T10:00:23;100413.88;;;23.69;55.69
46223;BME280;31943;51.410;7.564;2022-08-01T10:02:50;100415.94;;;23.62;55.12
46223;BME280;31943;51.410;7.564;2022-08-01T10:05:16;100424.53;;;23.69;55.20
46223;BME280;31943;51.410;7.564;2022-08-01T10:07:56;100419.34;;;23.66;55.96
46223;BME280;31943;51.410;7.564;2022-08-01T10:10:22;100428.53;;;23.59;55.95
46223;BME280;31943;51.410;7.564;2022-08-01T10:12:48;100416.81;;;23.63;56.64
46223;BME280;31943;51.410;7.564;2022-08-01T10:15:15;100421.47;;;24.00;55.60
46223;BME280;31943;51.410;7.564;2022-08-01T10:17:46;100423.59;;;24.33;55.21
46223;BME280;31943;51.410;7.564;2022-08-01T10:20:18;100423.94;;;24.05;55.16
46223;BME280;31943;51.410;7.564;2022-08-01T10:22:45;100425.72;;;23.62;55.86
46223;BME280;31943;51.410;7.564;2022-08-01T10:25:13;100426.72;;;23.37;56.96
46223;BME280;31943;51.410;7.564;2022-08-01T10:27:42;100425.28;;;23.28;57.14
46223;BME280;31943;51.410;7.564;2022-08-01T10:30:08;100428.03;;;23.27;56.32
46223;BME280;31943;51.410;7.564;2022-08-01T10:32:35;100420.59;;;23.35;56.28
46223;BME280;31943;51.410;7.564;2022-08-01T10:35:01;100421.38;;;23.59;54.72
46223;BME280;31943;51.410;7.564;2022-08-01T10:37:30;100412.41;;;24.04;53.93
46223;BME280;31943;51.410;7.564;2022-08-01T10:39:56;100420.31;;;24.47;52.66
46223;BME280;31943;51.410;7.564;2022-08-01T10:42:22;100418.69;;;24.84;51.95
46223;BME280;31943;51.410;7.564;2022-08-01T10:44:48;100424.22;;;24.98;51.43
46223;BME280;31943;51.410;7.564;2022-08-01T10:47:17;100412.88;;;25.12;50.79
46223;BME280;31943;51.410;7.564;2022-08-01T10:49:47;100417.41;;;25.48;50.28
46223;BME280;31943;51.410;7.564;2022-08-01T10:52:15;100407.63;;;25.66;48.08
46223;BME280;31943;51.410;7.564;2022-08-01T10:54:43;100409.22;;;25.88;47.26
46223;BME280;31943;51.410;7.564;2022-08-01T10:57:09;100406.47;;;26.07;46.96
46223;BME280;31943;51.410;7.564;2022-08-01T10:59:34;100406.56;;;26.05;47.60
46223;BME280;31943;51.410;7.564;2022-08-01T11:02:02;100405.50;;;25.90;47.18
46223;BME280;31943;51.410;7.564;2022-08-01T11:04:44;100405.88;;;25.65;47.90
46223;BME280;31943;51.410;7.564;2022-08-01T11:07:17;100404.47;;;25.58;48.91
46223;BME280;31943;51.410;7.564;2022-08-01T11:09:46;100399.41;;;25.52;49.57
46223;BME280;31943;51.410;7.564;2022-08-01T11:12:13;100403.88;;;25.34;48.31
46223;BME280;31943;51.410;7.564;2022-08-01T11:15:17;100407.31;;;25.17;48.83
46223;BME280;31943;51.410;7.564;2022-08-01T11:17:44;100410.00;;;25.36;48.72
46223;BME280;31943;51.410;7.564;2022-08-01T11:20:12;100411.78;;;25.54;48.19
46223;BME280;31943;51.410;7.564;2022-08-01T11:26:13;100404.00;;;25.67;47.74
46223;BME280;31943;51.410;7.564;2022-08-01T11:28:40;100392.50;;;26.01;46.19
46223;BME280;31943;51.410;7.564;2022-08-01T11:31:26;100412.47;;;26.12;48.55
46223;BME280;31943;51.410;7.564;2022-08-01T11:33:52;100419.63;;;25.57;50.82
46223;BME280;31943;51.410;7.564;2022-08-01T11:36:19;100416.41;;;25.13;52.05
46223;BME280;31943;51.410;7.564;2022-08-01T11:38:46;100416.50;;;24.73;53.05
46223;BME280;31943;51.410;7.564;2022-08-01T11:41:14;100420.06;;;24.53;53.06
46223;BME280;31943;51.410;7.564;2022-08-01T11:43:54;100426.44;;;24.70;51.97
46223;BME280;31943;51.410;7.564;2022-08-01T11:46:45;100425.13;;;24.59;52.66
46223;BME280;31943;51.410;7.564;2022-08-01T11:49:24;100424.31;;;24.78;52.96
46223;BME280;31943;51.410;7.564;2022-08-01T11:51:57;100421.06;;;25.09;52.22
46223;BME280;31943;51.410;7.564;2022-08-01T11:54:25;100428.63;;;24.99;52.32
46223;BME280;31943;51.410;7.564;2022-08-01T11:56:56;100423.63;;;24.73;53.43
46223;BME280;31943;51.410;7.564;2022-08-01T11:59:21;100429.38;;;24.63;52.79
46223;BME280;31943;51.410;7.564;2022-08-01T12:01:47;100421.47;;;24.41;52.31
46223;BME280;31943;51.410;7.564;2022-08-01T12:04:13;100423.72;;;24.30;53.34
46223;BME280;31943;51.410;7.564;2022-08-01T12:06:38;100421.59;;;24.38;53.26
46223;BME280;31943;51.410;7.564;2022-08-01T12:09:17;100413.03;;;24.71;52.19
46223;BME280;31943;51.410;7.564;2022-08-01T12:11:44;100425.09;;;24.99;50.59
46223;BME280;31943;51.410;7.564;2022-08-01T12:14:19;100415.31;;;25.17;50.56
46223;BME280;31943;51.410;7.564;2022-08-01T12:16:50;100421.28;;;25.42;50.29
46223;BME280;31943;51.410;7.564;2022-08-01T12:19:20;100425.97;;;25.37;50.52
46223;BME280;31943;51.410;7.564;2022-08-01T12:22:04;100432.00;;;25.03;49.62
46223;BME280;31943;51.410;7.564;2022-08-01T12:24:30;100428.22;;;24.90;51.12
46223;BME280;31943;51.410;7.564;2022-08-01T12:26:56;100418.88;;;24.98;51.08
46223;BME280;31943;51.410;7.564;2022-08-01T12:29:36;100430.84;;;25.09;51.50
46223;BME280;31943;51.410;7.564;2022-08-01T12:32:03;100433.38;;;24.93;51.06
46223;BME280;31943;51.410;7.564;2022-08-01T12:34:29;100437.25;;;24.66;52.41
46223;BME280;31943;51.410;7.564;2022-08-01T12:36:56;100433.41;;;24.53;52.07
46223;BME280;31943;51.410;7.564;2022-08-01T12:39:29;100427.72;;;24.40;52.61
46223;BME280;31943;51.410;7.564;2022-08-01T12:41:55;100434.06;;;24.38;53.07
46223;BME280;31943;51.410;7.564;2022-08-01T12:44:21;100434.06;;;24.38;53.31
46223;BME280;31943;51.410;7.564;2022-08-01T12:46:49;100442.34;;;24.32;52.31
46223;BME280;31943;51.410;7.564;2022-08-01T12:49:15;100448.22;;;24.19;51.65
46223;BME280;31943;51.410;7.564;2022-08-01T12:51:41;100445.56;;;24.19;52.07
46223;BME280;31943;51.410;7.564;2022-08-01T12:54:07;100437.84;;;24.54;51.88
46223;BME280;31943;51.410;7.564;2022-08-01T12:56:33;100436.72;;;24.98;51.81